createdAt,value
2018-02-27T00:01:02.746Z,65.29
2018-02-27T00:03:33.308Z,64.99
2018-02-27T00:06:04.542Z,64.42
2018-02-27T00:08:34.367Z,63.34
2018-02-27T00:11:06.388Z,63.70
2018-02-27T00:13:36.261Z,64.18
2018-02-27T00:16:06.553Z,63.47
2018-02-27T00:18:36.432Z,63.86
2018-02-27T00:21:11.283Z,63.19
2018-02-27T00:23:42.294Z,63.16
2018-02-27T00:26:12.112Z,63.97
2018-02-27T00:28:41.922Z,64.11
2018-02-27T00:31:11.481Z,64.04
2018-02-27T00:33:41.290Z,63.93
2018-02-27T00:36:11.089Z,63.50
2018-02-27T00:38:40.898Z,64.12
2018-02-27T00:41:10.728Z,62.80
2018-02-27T00:43:40.522Z,63.19
2018-02-27T00:46:10.324Z,63.82
2018-02-27T00:48:40.128Z,63.80
2018-02-27T00:51:09.934Z,63.99
2018-02-27T00:53:39.746Z,61.90
2018-02-27T00:56:09.590Z,61.99
2018-02-27T00:58:39.637Z,61.94
2018-02-27T01:01:09.516Z,61.88
2018-02-27T01:03:39.328Z,62.47
2018-02-27T01:06:09.146Z,62.60
2018-02-27T01:08:39.231Z,62.88
2018-02-27T01:11:09.045Z,62.28
2018-02-27T01:13:38.903Z,61.52
2018-02-27T01:16:08.721Z,63.30
2018-02-27T01:18:38.820Z,63.21
2018-02-27T01:21:08.479Z,62.32
2018-02-27T01:23:39.244Z,62.80
2018-02-27T01:26:10.889Z,62.61
2018-02-27T01:28:40.588Z,62.51
2018-02-27T01:31:10.496Z,62.34
2018-02-27T01:33:40.191Z,62.94
2018-02-27T01:36:10.229Z,62.30
2018-02-27T01:38:40.070Z,62.96
2018-02-27T01:41:10.001Z,62.49
2018-02-27T01:43:39.789Z,63.10
2018-02-27T01:46:09.622Z,62.85
2018-02-27T01:48:39.470Z,63.04
2018-02-27T01:51:15.589Z,63.84
2018-02-27T01:53:45.849Z,65.20
2018-02-27T01:56:15.659Z,64.85
2018-02-27T01:58:45.488Z,65.12
2018-02-27T02:01:15.302Z,64.77
2018-02-27T02:03:45.112Z,64.17
2018-02-27T02:06:14.938Z,64.16
2018-02-27T02:08:44.771Z,64.02
2018-02-27T02:11:14.582Z,63.58
2018-02-27T02:13:44.401Z,64.39
2018-02-27T02:16:14.212Z,65.19
2018-02-27T02:18:44.042Z,65.04
2018-02-27T02:21:13.891Z,65.93
2018-02-27T02:23:43.707Z,65.06
2018-02-27T02:26:13.532Z,65.37
2018-02-27T02:28:43.558Z,65.12
2018-02-27T02:31:13.352Z,64.98
2018-02-27T02:33:43.181Z,64.13
2018-02-27T02:36:13.105Z,65.15
2018-02-27T02:38:42.915Z,65.04
2018-02-27T02:41:12.733Z,64.87
2018-02-27T02:43:42.313Z,64.68
2018-02-27T02:46:12.361Z,64.69
2018-02-27T02:48:42.697Z,64.38
2018-02-27T02:51:12.593Z,64.95
2018-02-27T02:53:42.403Z,65.04
2018-02-27T02:56:12.268Z,64.53
2018-02-27T02:58:42.080Z,64.23
2018-02-27T03:01:11.879Z,64.79
2018-02-27T03:03:41.699Z,64.45
2018-02-27T03:06:11.510Z,64.36
2018-02-27T03:08:41.357Z,65.33
2018-02-27T03:11:11.175Z,65.36
2018-02-27T03:13:40.998Z,64.68
2018-02-27T03:16:10.802Z,65.53
2018-02-27T03:18:40.370Z,66.01
2018-02-27T03:21:10.207Z,65.09
2018-02-27T03:23:40.021Z,65.59
2018-02-27T03:26:09.841Z,64.84
2018-02-27T03:28:39.654Z,64.64
2018-02-27T03:31:09.467Z,65.12
2018-02-27T03:33:39.303Z,65.68
2018-02-27T03:36:09.146Z,64.23
2018-02-27T03:38:38.944Z,63.58
2018-02-27T03:41:08.949Z,64.51
2018-02-27T03:43:38.733Z,63.23
2018-02-27T03:46:08.542Z,63.50
2018-02-27T03:48:38.571Z,63.37
2018-02-27T03:51:08.399Z,63.65
2018-02-27T03:53:38.194Z,64.18
2018-02-27T03:56:08.000Z,64.65
2018-02-27T03:58:37.811Z,64.83
2018-02-27T04:01:07.621Z,64.00
2018-02-27T04:03:37.433Z,64.73
2018-02-27T04:06:07.248Z,64.69
2018-02-27T04:08:37.053Z,65.11
2018-02-27T04:11:06.865Z,64.42
2018-02-27T04:13:36.494Z,65.15
2018-02-27T04:16:06.311Z,65.44
2018-02-27T04:18:36.123Z,63.97
2018-02-27T04:21:06.003Z,64.42
2018-02-27T04:23:35.827Z,65.22
2018-02-27T04:26:05.636Z,64.42
2018-02-27T04:28:35.452Z,64.75
2018-02-27T04:31:05.282Z,64.71
2018-02-27T04:33:35.097Z,64.31
2018-02-27T04:36:04.897Z,63.91
2018-02-27T04:38:34.723Z,63.58
2018-02-27T04:41:04.538Z,64.11
2018-02-27T04:43:34.360Z,63.39
2018-02-27T04:46:04.162Z,63.95
2018-02-27T04:48:33.974Z,63.60
2018-02-27T04:51:03.936Z,63.42
2018-02-27T04:53:33.752Z,63.87
2018-02-27T04:56:03.579Z,64.07
2018-02-27T04:58:33.569Z,63.54
2018-02-27T05:01:03.399Z,64.06
2018-02-27T05:03:33.233Z,64.31
2018-02-27T05:06:03.037Z,64.43
2018-02-27T05:08:32.893Z,63.74
2018-02-27T05:11:02.688Z,62.53
2018-02-27T05:13:32.507Z,64.43
2018-02-27T05:16:02.088Z,65.19
2018-02-27T05:18:32.026Z,66.04
2018-02-27T05:21:01.837Z,63.54
2018-02-27T05:23:34.011Z,63.68
2018-02-27T05:26:03.953Z,63.10
2018-02-27T05:28:33.806Z,62.22
2018-02-27T05:31:04.250Z,62.56
2018-02-27T05:33:34.102Z,63.03
2018-02-27T05:36:03.926Z,62.72
2018-02-27T05:38:33.738Z,63.18
2018-02-27T05:41:12.572Z,62.73
2018-02-27T05:43:43.741Z,63.36
2018-02-27T05:46:14.390Z,63.27
2018-02-27T05:48:44.612Z,63.99
2018-02-27T05:51:16.357Z,64.72
2018-02-27T05:53:49.801Z,64.40
2018-02-27T05:56:19.612Z,64.03
2018-02-27T05:58:49.253Z,63.21
2018-02-27T06:01:19.193Z,63.63
2018-02-27T06:03:49.092Z,63.48
2018-02-27T06:06:19.085Z,63.41
2018-02-27T06:08:48.985Z,63.19
2018-02-27T06:11:18.851Z,62.76
2018-02-27T06:13:49.908Z,63.03
2018-02-27T06:16:20.306Z,62.90
2018-02-27T06:18:50.170Z,62.33
2018-02-27T06:21:20.360Z,62.32
2018-02-27T06:23:50.050Z,62.28
2018-02-27T06:26:20.008Z,62.17
2018-02-27T06:28:49.906Z,61.91
2018-02-27T06:31:19.805Z,62.21
2018-02-27T06:33:50.183Z,61.39
2018-02-27T06:40:48.538Z,60.92
2018-02-27T06:43:33.662Z,60.81
2018-02-27T06:46:07.125Z,59.90
2018-02-27T06:48:37.483Z,61.15
2018-02-27T06:51:07.802Z,59.66
2018-02-27T06:53:37.690Z,60.73
2018-02-27T06:56:08.011Z,58.78
2018-02-27T06:58:38.216Z,59.75
2018-02-27T07:01:08.298Z,59.38
2018-02-27T07:03:38.230Z,57.33
2018-02-27T07:06:08.288Z,57.71
2018-02-27T07:08:38.440Z,57.03
2018-02-27T07:11:08.287Z,58.32
2018-02-27T07:13:38.214Z,57.01
2018-02-27T07:16:08.041Z,57.37
2018-02-27T07:18:37.958Z,57.71
2018-02-27T07:21:07.774Z,55.98
2018-02-27T07:23:37.589Z,55.46
2018-02-27T07:26:07.510Z,57.03
2018-02-27T07:28:37.419Z,56.35
2018-02-27T07:31:07.290Z,54.32
2018-02-27T07:33:36.878Z,54.97
2018-02-27T07:36:06.703Z,53.36
2018-02-27T07:38:36.530Z,53.23
2018-02-27T07:41:05.860Z,54.63
2018-02-27T07:43:35.716Z,53.35
2018-02-27T07:46:05.546Z,52.33
2018-02-27T07:48:35.507Z,49.72
2018-02-27T07:51:05.479Z,50.92
2018-02-27T07:53:35.415Z,51.27
2018-02-27T07:56:05.437Z,50.20
2018-02-27T07:58:35.460Z,49.91
2018-02-27T08:01:05.336Z,49.94
2018-02-27T08:03:35.206Z,49.85
2018-02-27T08:06:05.317Z,49.28
2018-02-27T08:08:35.342Z,46.55
2018-02-27T08:11:05.191Z,45.19
2018-02-27T08:13:35.121Z,45.92
2018-02-27T08:16:05.005Z,44.52
2018-02-27T08:18:34.932Z,43.77
2018-02-27T08:21:04.781Z,42.54
2018-02-27T08:23:34.368Z,42.83
2018-02-27T08:26:04.212Z,41.75
2018-02-27T08:28:34.129Z,41.69
2018-02-27T08:31:04.256Z,40.75
2018-02-27T08:33:34.325Z,41.10
2018-02-27T08:36:04.337Z,40.96
2018-02-27T08:38:34.312Z,41.22
2018-02-27T08:41:04.316Z,39.70
2018-02-27T08:43:34.287Z,36.67
2018-02-27T08:46:04.285Z,39.69
2018-02-27T08:48:34.164Z,37.76
2018-02-27T08:51:03.987Z,38.67
2018-02-27T08:53:33.807Z,36.62
2018-02-27T08:56:03.686Z,37.34
2018-02-27T08:58:33.664Z,36.40
2018-02-27T09:01:03.515Z,35.47
2018-02-27T09:03:33.480Z,35.64
2018-02-27T09:06:03.312Z,35.60
2018-02-27T09:08:34.107Z,34.56
2018-02-27T09:11:03.974Z,32.40
2018-02-27T09:13:33.832Z,33.42
2018-02-27T09:16:03.671Z,33.09
2018-02-27T09:18:33.535Z,33.01
2018-02-27T09:21:03.357Z,30.69
2018-02-27T09:23:33.233Z,30.33
2018-02-27T09:26:03.052Z,31.02
2018-02-27T09:28:32.870Z,30.42
2018-02-27T09:31:02.825Z,29.17
2018-02-27T09:33:32.667Z,29.23
2018-02-27T09:36:02.658Z,29.91
2018-02-27T09:38:32.575Z,31.63
2018-02-27T09:41:02.586Z,33.08
2018-02-27T09:43:32.491Z,34.09
2018-02-27T09:46:02.360Z,33.26
2018-02-27T09:48:32.456Z,33.04
2018-02-27T09:51:02.321Z,32.93
2018-02-27T09:53:32.166Z,33.88
2018-02-27T09:56:01.984Z,35.23
2018-02-27T09:58:31.857Z,36.15
2018-02-27T10:01:01.673Z,36.90
2018-02-27T10:03:31.576Z,37.32
2018-02-27T10:06:01.152Z,36.60
2018-02-27T10:08:31.008Z,37.09
2018-02-27T10:11:00.976Z,37.26
2018-02-27T10:13:31.087Z,37.34
2018-02-27T10:16:01.395Z,37.48
2018-02-27T10:18:31.297Z,36.93
2018-02-27T10:21:01.397Z,37.69
2018-02-27T10:23:31.275Z,35.80
2018-02-27T10:26:01.102Z,35.31
2018-02-27T10:28:31.012Z,35.75
2018-02-27T10:31:01.001Z,33.44
2018-02-27T10:33:31.038Z,34.05
2018-02-27T10:36:00.994Z,33.90
2018-02-27T10:38:31.243Z,33.81
2018-02-27T10:41:01.233Z,36.27
2018-02-27T10:43:31.185Z,36.34
2018-02-27T10:46:01.085Z,36.25
2018-02-27T10:48:30.943Z,36.04
2018-02-27T10:51:00.963Z,35.65
2018-02-27T10:53:33.152Z,37.40
2018-02-27T10:56:03.211Z,36.42
2018-02-27T10:58:33.267Z,36.33
2018-02-27T11:01:02.928Z,36.18
2018-02-27T11:03:33.010Z,37.68
2018-02-27T11:06:03.304Z,36.37
2018-02-27T11:08:33.678Z,36.45
2018-02-27T11:11:03.745Z,36.75
2018-02-27T11:13:33.619Z,35.65
2018-02-27T11:16:04.317Z,35.70
2018-02-27T11:18:34.724Z,35.47
2018-02-27T11:21:04.794Z,35.69
2018-02-27T11:23:35.554Z,35.21
2018-02-27T11:26:05.948Z,33.01
2018-02-27T11:28:35.883Z,35.96
2018-02-27T11:31:05.831Z,33.30
2018-02-27T11:33:35.343Z,34.65
2018-02-27T11:36:04.906Z,33.93
2018-02-27T11:38:35.109Z,34.86
2018-02-27T11:41:04.982Z,32.79
2018-02-27T11:43:34.821Z,33.32
2018-02-27T11:46:04.696Z,32.63
2018-02-27T11:48:34.620Z,30.23
2018-02-27T11:51:04.145Z,28.73
2018-02-27T11:53:33.966Z,27.35
2018-02-27T11:56:03.937Z,30.30
2018-02-27T11:58:37.541Z,28.67
2018-02-27T12:01:07.418Z,33.43
2018-02-27T12:03:37.288Z,33.60
2018-02-27T12:06:07.822Z,33.65
2018-02-27T12:08:37.676Z,33.92
2018-02-27T12:11:07.546Z,32.45
2018-02-27T12:13:37.401Z,30.87
2018-02-27T12:16:07.432Z,31.07
2018-02-27T12:18:37.422Z,29.91
2018-02-27T12:21:07.973Z,31.24
2018-02-27T12:23:38.718Z,33.07
2018-02-27T12:26:09.610Z,34.94
2018-02-27T12:28:39.538Z,33.73
2018-02-27T12:31:11.548Z,34.30
2018-02-27T12:33:41.925Z,36.90
2018-02-27T12:38:46.771Z,35.33
2018-02-27T12:41:16.921Z,35.19
2018-02-27T12:43:46.899Z,37.38
2018-02-27T12:46:16.854Z,36.72
2018-02-27T12:48:46.876Z,38.88
2018-02-27T12:51:17.553Z,39.19
2018-02-27T12:53:47.440Z,39.49
2018-02-27T12:56:17.798Z,37.96
2018-02-27T12:58:47.872Z,38.12
2018-02-27T13:01:17.895Z,39.10
2018-02-27T13:03:47.873Z,39.23
2018-02-27T13:06:17.711Z,39.71
2018-02-27T13:08:47.690Z,39.02
2018-02-27T13:11:17.636Z,38.52
2018-02-27T13:13:47.789Z,38.73
2018-02-27T13:16:18.334Z,39.02
2018-02-27T13:18:48.291Z,39.41
2018-02-27T13:21:18.123Z,39.23
2018-02-27T13:23:48.062Z,38.70
2018-02-27T13:26:18.065Z,39.26
2018-02-27T13:28:52.418Z,39.55
2018-02-27T13:31:22.822Z,38.98
2018-02-27T13:33:53.519Z,38.31
2018-02-27T13:36:23.905Z,39.70
2018-02-27T13:38:54.782Z,39.41
2018-02-27T13:41:24.688Z,39.00
2018-02-27T13:43:55.038Z,38.70
2018-02-27T13:46:26.423Z,38.54
2018-02-27T13:49:03.999Z,39.37
2018-02-27T13:51:26.666Z,39.70
2018-02-27T13:53:57.678Z,40.07
2018-02-27T13:56:27.618Z,39.51
2018-02-27T13:58:57.574Z,39.12
2018-02-27T14:01:27.501Z,39.74
2018-02-27T14:03:57.884Z,38.97
2018-02-27T14:06:27.877Z,39.85
2018-02-27T14:08:57.794Z,39.93
2018-02-27T14:11:28.062Z,40.14
2018-02-27T14:13:58.426Z,40.25
2018-02-27T14:16:28.602Z,39.97
2018-02-27T14:18:58.554Z,40.42
2018-02-27T14:21:28.295Z,40.33
2018-02-27T14:23:59.136Z,40.81
2018-02-27T14:26:29.145Z,41.69
2018-02-27T14:28:59.032Z,41.12
2018-02-27T14:31:28.773Z,40.57
2018-02-27T14:33:58.763Z,41.88
2018-02-27T14:36:28.433Z,42.63
2018-02-27T14:38:58.501Z,43.11
2018-02-27T14:41:28.458Z,42.50
2018-02-27T14:43:58.575Z,42.89
2018-02-27T14:46:28.457Z,42.09
2018-02-27T14:48:58.393Z,42.53
2018-02-27T14:51:28.339Z,42.51
2018-02-27T14:53:58.379Z,43.17
2018-02-27T14:56:28.688Z,43.24
2018-02-27T14:58:58.631Z,44.10
2018-02-27T15:01:29.016Z,43.93
2018-02-27T15:03:58.894Z,43.92
2018-02-27T15:06:30.083Z,44.22
2018-02-27T15:09:00.046Z,45.63
2018-02-27T15:11:31.680Z,44.69
2018-02-27T15:14:01.570Z,44.39
2018-02-27T15:16:34.483Z,45.09
2018-02-27T15:19:04.317Z,45.08
2018-02-27T15:21:35.686Z,45.58
2018-02-27T15:24:05.575Z,44.58
2018-02-27T15:26:38.548Z,45.51
2018-02-27T15:29:09.254Z,45.85
2018-02-27T15:31:40.107Z,46.45
2018-02-27T15:34:10.069Z,46.32
2018-02-27T15:36:40.285Z,46.05
2018-02-27T15:39:17.250Z,46.21
2018-02-27T15:41:47.141Z,46.43
2018-02-27T15:44:17.022Z,46.59
2018-02-27T15:46:47.486Z,46.82
2018-02-27T15:49:17.313Z,46.65
2018-02-27T15:51:48.376Z,47.33
2018-02-27T15:54:18.307Z,47.01
2018-02-27T15:56:48.158Z,47.51
2018-02-27T15:59:18.969Z,47.80
2018-02-27T16:01:52.806Z,47.86
2018-02-27T16:04:30.496Z,47.98
2018-02-27T16:07:02.097Z,48.04
2018-02-27T16:09:32.844Z,48.19
2018-02-27T16:12:02.828Z,48.70
2018-02-27T16:14:32.774Z,49.10
2018-02-27T16:17:02.719Z,49.71
2018-02-27T16:19:32.574Z,49.43
2018-02-27T16:22:02.396Z,49.73
2018-02-27T16:24:32.243Z,49.95
2018-02-27T16:27:02.053Z,49.84
2018-02-27T16:29:32.050Z,49.88
2018-02-27T16:32:01.864Z,50.11
2018-02-27T16:34:31.660Z,51.02
2018-02-27T16:37:01.498Z,51.53
2018-02-27T16:39:31.378Z,51.16
2018-02-27T16:42:01.170Z,51.33
2018-02-27T16:44:31.007Z,50.88
2018-02-27T16:47:00.825Z,51.64
2018-02-27T16:49:30.617Z,51.59
2018-02-27T16:52:01.057Z,51.72
2018-02-27T16:54:30.911Z,52.02
2018-02-27T16:57:00.741Z,51.14
2018-02-27T16:59:34.474Z,51.77
2018-02-27T17:02:04.277Z,51.90
2018-02-27T17:04:34.263Z,52.15
2018-02-27T17:07:04.165Z,52.36
2018-02-27T17:09:34.245Z,52.06
2018-02-27T17:12:04.084Z,51.99
2018-02-27T17:14:34.045Z,52.77
2018-02-27T17:17:03.914Z,51.91
2018-02-27T17:19:33.859Z,52.67
2018-02-27T17:22:04.556Z,52.86
2018-02-27T17:24:34.444Z,53.30
2018-02-27T17:27:04.270Z,53.24
2018-02-27T17:29:34.146Z,52.68
2018-02-27T17:32:04.013Z,52.97
2018-02-27T17:34:33.871Z,53.50
2018-02-27T17:37:03.877Z,53.95
2018-02-27T17:39:33.715Z,53.03
2018-02-27T17:42:03.535Z,53.40
2018-02-27T17:44:33.716Z,53.36
2018-02-27T17:47:03.530Z,53.45
2018-02-27T17:49:39.412Z,53.75
2018-02-27T17:52:10.313Z,53.49
2018-02-27T17:54:40.129Z,52.83
2018-02-27T17:57:10.091Z,53.91
2018-02-27T17:59:40.046Z,53.67
2018-02-27T18:02:13.732Z,53.93
2018-02-27T18:04:43.408Z,54.06
2018-02-27T18:07:13.248Z,53.78
2018-02-27T18:09:43.065Z,54.23
2018-02-27T18:12:12.882Z,54.36
2018-02-27T18:14:42.720Z,53.93
2018-02-27T18:17:12.546Z,54.34
2018-02-27T18:19:44.420Z,54.17
2018-02-27T18:22:15.336Z,54.27
2018-02-27T18:24:45.159Z,54.54
2018-02-27T18:27:15.015Z,55.03
2018-02-27T18:29:45.895Z,55.50
2018-02-27T18:32:15.905Z,56.07
2018-02-27T18:34:45.911Z,55.38
2018-02-27T18:37:15.734Z,56.21
2018-02-27T18:39:45.683Z,56.22
2018-02-27T18:42:16.244Z,55.64
2018-02-27T18:44:46.157Z,55.88
2018-02-27T18:47:16.876Z,56.46
2018-02-27T18:49:46.894Z,56.78
2018-02-27T18:52:16.885Z,56.92
2018-02-27T18:54:46.843Z,57.09
2018-02-27T18:57:17.188Z,57.42
2018-02-27T18:59:51.779Z,57.99
2018-02-27T19:02:24.976Z,57.83
2018-02-27T19:05:00.250Z,57.68
2018-02-27T19:07:31.127Z,58.11
2018-02-27T19:10:01.029Z,57.81
2018-02-27T19:12:30.918Z,58.18
2018-02-27T19:15:01.094Z,58.27
2018-02-27T19:17:31.601Z,58.42
2018-02-27T19:20:01.689Z,58.44
2018-02-27T19:22:31.565Z,58.25
2018-02-27T19:25:01.405Z,58.27
2018-02-27T19:27:31.540Z,58.65
2018-02-27T19:30:01.788Z,58.71
2018-02-27T19:32:32.080Z,58.54
2018-02-27T19:35:03.117Z,59.03
2018-02-27T19:37:33.411Z,58.62
2018-02-27T19:40:03.702Z,58.29
2018-02-27T19:42:33.786Z,58.46
2018-02-27T19:45:03.988Z,58.41
2018-02-27T19:47:34.518Z,59.22
2018-02-27T19:50:04.671Z,59.55
2018-02-27T19:52:34.837Z,59.94
2018-02-27T19:55:05.067Z,60.05
2018-02-27T19:57:35.137Z,60.52
2018-02-27T20:00:05.615Z,60.76
2018-02-27T20:02:35.894Z,60.89
2018-02-27T20:05:05.947Z,60.73
2018-02-27T20:07:36.021Z,61.09
2018-02-27T20:10:06.028Z,61.21
2018-02-27T20:12:36.353Z,61.19
2018-02-27T20:15:06.454Z,61.68
2018-02-27T20:17:42.030Z,62.14
2018-02-27T20:20:12.006Z,61.45
2018-02-27T20:22:47.261Z,61.56
2018-02-27T20:25:17.590Z,61.54
2018-02-27T20:27:47.538Z,61.48
2018-02-27T20:30:17.667Z,61.49
2018-02-27T20:32:48.171Z,61.75
2018-02-27T20:35:18.360Z,61.60
2018-02-27T20:37:54.292Z,61.16
2018-02-27T20:40:24.282Z,62.00
2018-02-27T20:42:54.161Z,62.32
2018-02-27T20:45:24.206Z,62.86
2018-02-27T20:47:54.561Z,63.25
2018-02-27T20:50:28.358Z,63.77
2018-02-27T20:52:58.341Z,63.73
2018-02-27T20:55:28.379Z,63.14
2018-02-27T20:57:58.548Z,63.37
2018-02-27T21:00:28.509Z,62.90
2018-02-27T21:02:58.890Z,63.41
2018-02-27T21:05:28.913Z,64.05
2018-02-27T21:07:59.420Z,63.79
2018-02-27T21:10:29.340Z,63.65
2018-02-27T21:12:59.264Z,63.95
2018-02-27T21:15:29.097Z,64.09
2018-02-27T21:17:59.039Z,64.11
2018-02-27T21:20:33.400Z,64.34
2018-02-27T21:23:03.521Z,64.41
2018-02-27T21:25:33.843Z,64.00
2018-02-27T21:28:08.709Z,64.65
2018-02-27T21:30:38.625Z,64.82
2018-02-27T21:33:08.716Z,64.97
2018-02-27T21:35:38.781Z,65.14
2018-02-27T21:38:08.663Z,65.34
2018-02-27T21:40:39.902Z,64.27
2018-02-27T21:43:10.241Z,64.24
2018-02-27T21:45:40.418Z,64.21
2018-02-27T21:48:11.752Z,64.18
2018-02-27T21:50:41.960Z,64.37
2018-02-27T21:53:13.132Z,63.68
2018-02-27T21:55:43.330Z,63.52
2018-02-27T21:58:17.468Z,63.05
2018-02-27T22:00:48.399Z,63.18
2018-02-27T22:03:18.233Z,63.53
2018-02-27T22:05:49.016Z,62.75
2018-02-27T22:08:19.655Z,62.78
2018-02-27T22:10:50.018Z,62.74
2018-02-27T22:13:20.201Z,62.17
2018-02-27T22:15:54.131Z,62.44
2018-02-27T22:18:24.115Z,62.72
2018-02-27T22:20:54.082Z,63.10
2018-02-27T22:23:24.035Z,63.51
2018-02-27T22:25:53.868Z,63.72
2018-02-27T22:28:24.562Z,63.37
2018-02-27T22:30:54.643Z,62.96
2018-02-27T22:33:24.933Z,63.17
2018-02-27T22:35:54.770Z,62.86
2018-02-27T22:38:24.750Z,63.20
2018-02-27T22:40:54.672Z,63.50
2018-02-27T22:43:24.502Z,63.00
2018-02-27T22:45:54.419Z,63.64
2018-02-27T22:48:24.288Z,63.81
2018-02-27T22:50:54.110Z,63.81
2018-02-27T22:53:23.940Z,64.14
2018-02-27T22:55:53.860Z,63.91
2018-02-27T22:58:23.944Z,63.65
2018-02-27T23:00:53.777Z,63.39
2018-02-27T23:03:23.057Z,62.57
2018-02-27T23:05:52.875Z,63.03
2018-02-27T23:08:22.715Z,63.57
2018-02-27T23:10:52.540Z,63.92
2018-02-27T23:13:22.661Z,63.52
2018-02-27T23:15:52.209Z,62.87
2018-02-27T23:18:22.055Z,63.38
2018-02-27T23:20:51.857Z,62.78
2018-02-27T23:23:21.660Z,63.09
2018-02-27T23:26:01.268Z,62.60
2018-02-27T23:28:35.438Z,63.22
2018-02-27T23:31:05.534Z,63.37
2018-02-27T23:33:36.777Z,63.38
2018-02-27T23:36:06.882Z,62.67
2018-02-27T23:38:36.877Z,62.61
2018-02-27T23:41:07.444Z,63.12
2018-02-27T23:43:38.174Z,63.01
2018-02-27T23:46:08.403Z,63.57
2018-02-27T23:48:38.331Z,64.60
2018-02-27T23:51:08.640Z,64.56
2018-02-27T23:53:38.872Z,65.04
2018-02-27T23:56:08.671Z,64.90
2018-02-27T23:58:39.188Z,64.65
